Time;durP1;ratioP1;P1;durP2;ratioP2;P2;SDS_P1;SDS_P2;PMS_P1;PMS_P2;Temp;Humidity;BMP_temperature;BMP_pressure;BME280_temperature;BME280_humidity;BME280_pressure;Samples;Min_cycle;Max_cycle;Signal;HPM_P1;HPM_P2
2023/12/01 00:00:29;;;;;;;45.10;19.70;;;;;;;7.89;45.21;99350.95;108008;1254;60354;-66
2023/12/01 00:02:55;;;;;;;42.70;19.80;;;;;;;7.86;45.40;99347.61;108028;1254;72266;-66
2023/12/01 00:05:22;;;;;;;40.90;18.30;;;;;;;7.82;45.51;99339.02;108010;1254;70178;-66
2023/12/01 00:07:49;;;;;;;36.80;18.50;;;;;;;7.73;45.55;99333.05;108002;1254;72691;-66
2023/12/01 00:10:15;;;;;;;43.80;18.80;;;;;;;7.63;45.91;99324.67;108007;1254;60331;-66
2023/12/01 00:12:42;;;;;;;42.80;19.80;;;;;;;7.34;46.56;99315.63;108014;1255;60273;-66
2023/12/01 00:15:09;;;;;;;41.20;17.70;;;;;;;7.24;46.78;99323.68;107991;1254;73537;-66
2023/12/01 00:17:35;;;;;;;34.70;17.40;;;;;;;7.55;46.26;99321.33;108093;1254;68815;-66
2023/12/01 00:20:02;;;;;;;43.50;20.30;;;;;;;7.60;46.17;99295.28;108061;1257;72328;-66
2023/12/01 00:22:30;;;;;;;44.80;21.20;;;;;;;7.66;46.13;99295.95;108055;1254;60621;-66
2023/12/01 00:24:56;;;;;;;41.80;19.40;;;;;;;7.66;46.16;99290.33;108107;1254;60743;-66
2023/12/01 00:27:23;;;;;;;42.60;19.60;;;;;;;7.59;46.26;99303.36;108063;1254;73836;-66
2023/12/01 00:29:50;;;;;;;39.60;19.00;;;;;;;7.51;46.54;99315.19;108018;1254;71148;-66
2023/12/01 00:32:16;;;;;;;50.90;22.50;;;;;;;7.51;46.70;99312.73;108029;1255;60540;-66
2023/12/01 00:34:43;;;;;;;40.50;19.80;;;;;;;7.48;46.94;99302.54;108018;1254;60639;-66
2023/12/01 00:37:09;;;;;;;56.70;23.30;;;;;;;7.60;46.57;99298.23;108004;1254;59060;-66
2023/12/01 00:39:36;;;;;;;51.20;22.30;;;;;;;7.52;46.68;99291.73;108014;1254;73873;-65
2023/12/01 00:42:03;;;;;;;39.80;18.70;;;;;;;7.30;47.36;99290.98;108003;1254;70591;-66
2023/12/01 00:44:30;;;;;;;45.70;21.50;;;;;;;7.32;47.33;99286.71;108088;1254;72514;-65
2023/12/01 00:46:57;;;;;;;46.50;21.30;;;;;;;7.41;47.14;99278.18;108097;1254;61863;-65
2023/12/01 00:49:23;;;;;;;42.20;19.30;;;;;;;7.52;46.92;99262.23;108099;1259;60377;-65
2023/12/01 00:51:50;;;;;;;53.80;21.20;;;;;;;7.40;47.19;99253.27;108038;1258;73860;-65
2023/12/01 00:54:17;;;;;;;47.10;21.40;;;;;;;7.43;47.46;99264.13;108036;1257;70937;-65
2023/12/01 00:56:44;;;;;;;48.00;20.40;;;;;;;7.53;47.02;99258.35;108078;1254;72395;-65
2023/12/01 00:59:13;;;;;;;42.40;20.60;;;;;;;7.33;47.58;99252.46;108032;1256;61939;-66
2023/12/01 01:01:39;;;;;;;47.20;20.50;;;;;;;7.44;47.22;99241.94;107886;1254;60257;-66
2023/12/01 01:04:06;;;;;;;47.40;21.30;;;;;;;7.45;47.14;99235.78;108080;1259;73796;-65
2023/12/01 01:06:35;;;;;;;49.60;21.80;;;;;;;7.39;47.30;99219.41;108004;1254;70837;-65
2023/12/01 01:09:03;;;;;;;58.00;22.10;;;;;;;7.40;47.29;99219.89;107995;1254;73050;-65
2023/12/01 01:11:30;;;;;;;46.10;20.90;;;;;;;7.40;47.22;99222.89;108065;1254;60540;-65
2023/12/01 01:13:59;;;;;;;45.20;20.70;;;;;;;7.40;47.36;99216.58;108044;1260;60472;-66
2023/12/01 01:16:26;;;;;;;51.50;22.70;;;;;;;7.56;46.98;99218.41;108014;1254;74361;-65
2023/12/01 01:18:53;;;;;;;44.10;19.50;;;;;;;7.67;46.68;99217.09;107955;1254;198079;-65
2023/12/01 01:22:18;;;;;;;49.00;21.80;;;;;;;5.61;52.06;99204.26;104982;1289;599532;-66
2023/12/01 01:24:46;;;;;;;60.60;25.00;;;;;;;6.58;49.33;99186.29;107338;1264;61652;-66
2023/12/01 01:27:13;;;;;;;53.50;22.40;;;;;;;6.45;49.33;99202.42;107316;1264;60383;-66
2023/12/01 01:29:41;;;;;;;44.40;20.30;;;;;;;6.46;49.37;99196.48;107315;1264;71075;-66
2023/12/01 01:32:08;;;;;;;42.10;19.70;;;;;;;6.64;49.04;99185.58;107281;1264;68906;-66
2023/12/01 01:34:36;;;;;;;47.40;22.40;;;;;;;6.67;48.87;99177.42;107232;1264;72625;-66
2023/12/01 01:37:03;;;;;;;50.50;23.30;;;;;;;6.82;48.76;99167.64;107285;1264;131956;-66
2023/12/01 01:39:31;;;;;;;56.10;23.50;;;;;;;6.84;48.59;99183.27;107751;1258;59138;-65
2023/12/01 01:41:59;;;;;;;40.70;19.30;;;;;;;6.94;48.65;99186.72;107615;1257;71393;-65
2023/12/01 01:44:26;;;;;;;50.60;23.20;;;;;;;7.12;48.17;99175.76;107715;1258;69242;-66
2023/12/01 01:46:54;;;;;;;51.70;23.30;;;;;;;7.11;48.16;99167.41;107650;1262;72589;-66
2023/12/01 01:49:25;;;;;;;50.40;22.90;;;;;;;7.03;48.30;99149.05;107648;1259;61731;-66
2023/12/01 01:51:56;;;;;;;;;;;;;;;6.92;48.40;99167.08;107594;1257;60132;-66
2023/12/01 01:54:24;;;;;;;39.40;18.10;;;;;;;6.88;48.49;99157.25;107667;1258;71304;-66
2023/12/01 01:56:52;;;;;;;57.70;24.40;;;;;;;6.77;48.80;99141.98;107660;1263;69349;-65
2023/12/01 01:59:20;;;;;;;47.40;19.90;;;;;;;6.82;48.61;99140.73;107519;1262;72707;-66
2023/12/01 02:01:48;;;;;;;57.70;23.40;;;;;;;6.79;48.89;99131.80;107531;1261;61671;-65
2023/12/01 02:04:17;;;;;;;51.10;23.80;;;;;;;6.53;49.27;99124.02;107564;1260;59989;-65
2023/12/01 02:06:46;;;;;;;46.80;19.80;;;;;;;6.56;49.13;99103.33;107469;1260;71842;-65
2023/12/01 02:09:13;;;;;;;52.80;23.30;;;;;;;6.49;49.37;99094.88;107539;1261;68846;-66
2023/12/01 02:11:41;;;;;;;52.10;20.90;;;;;;;6.64;49.05;99108.11;107544;1260;72474;-66
2023/12/01 02:14:09;;;;;;;54.30;23.50;;;;;;;6.70;48.78;99094.98;107643;1263;61744;-65
2023/12/01 02:16:54;;;;;;;54.70;24.10;;;;;;;6.82;48.58;99075.85;107598;1261;59723;-65
2023/12/01 02:19:22;;;;;;;53.80;24.30;;;;;;;6.89;48.69;99073.30;107489;1259;71775;-66
2023/12/01 02:21:51;;;;;;;53.40;22.60;;;;;;;6.82;48.76;99082.29;107508;1261;71280;-66
2023/12/01 02:24:19;;;;;;;52.80;23.40;;;;;;;6.66;48.82;99062.33;107568;1260;71644;-66
2023/12/01 02:26:46;;;;;;;49.00;21.80;;;;;;;6.84;48.64;99061.84;107579;1264;61057;-65
2023/12/01 02:29:14;;;;;;;51.00;23.90;;;;;;;6.74;48.59;99055.73;107456;1260;59489;-66
2023/12/01 02:31:41;;;;;;;47.90;22.30;;;;;;;6.93;48.20;99053.63;107517;1260;73776;-66
2023/12/01 02:34:08;;;;;;;57.30;24.80;;;;;;;6.92;48.04;99044.42;107594;1259;69949;-66
2023/12/01 02:36:36;;;;;;;56.80;24.70;;;;;;;6.93;48.10;99044.17;107545;1260;71460;-66
2023/12/01 02:39:04;;;;;;;51.40;21.00;;;;;;;6.95;48.15;99044.29;107415;1261;60491;-66
2023/12/01 02:41:31;;;;;;;57.50;24.70;;;;;;;6.87;48.19;99032.20;107549;1260;62050;-66
2023/12/01 02:43:59;;;;;;;62.30;25.70;;;;;;;6.87;48.24;99021.91;107545;1265;72792;-66
2023/12/01 02:46:27;;;;;;;64.90;24.30;;;;;;;6.76;48.38;99008.94;107607;1260;68845;-66
2023/12/01 02:48:54;;;;;;;61.50;25.40;;;;;;;6.61;48.86;99023.11;107543;1265;72544;-66
2023/12/01 02:51:24;;;;;;;59.50;24.60;;;;;;;6.63;48.83;99028.60;107643;1260;60607;-66
2023/12/01 02:53:51;;;;;;;39.20;18.60;;;;;;;6.68;48.79;99025.45;107527;1259;59979;-65
2023/12/01 02:56:19;;;;;;;46.20;20.90;;;;;;;6.78;48.84;99019.31;107549;1261;73041;-66
2023/12/01 02:58:46;;;;;;;49.00;22.10;;;;;;;6.82;48.67;99009.04;107587;1260;70461;-65
2023/12/01 03:01:14;;;;;;;48.70;22.10;;;;;;;6.90;48.50;98994.59;107583;1260;71182;-66
2023/12/01 03:03:43;;;;;;;53.60;23.60;;;;;;;6.72;48.62;98977.52;107449;1261;60497;-66
2023/12/01 03:06:10;;;;;;;48.50;21.60;;;;;;;7.07;48.25;98966.16;107561;1259;59684;-65
2023/12/01 03:08:38;;;;;;;40.90;19.70;;;;;;;7.13;47.95;98975.16;107613;1260;72170;-65
2023/12/01 03:11:06;;;;;;;41.90;20.80;;;;;;;6.90;48.53;98969.97;107547;1260;69230;-66
2023/12/01 03:13:34;;;;;;;51.80;22.10;;;;;;;7.00;48.40;98965.02;107517;1261;71728;-66
2023/12/01 03:16:01;;;;;;;45.20;21.90;;;;;;;7.19;48.16;98966.34;107687;1261;60572;-67
2023/12/01 03:18:29;;;;;;;43.10;18.60;;;;;;;7.13;48.32;98966.61;107583;1261;59600;-66
2023/12/01 03:20:57;;;;;;;51.40;22.00;;;;;;;6.86;48.87;98965.44;107567;1260;71624;-66
2023/12/01 03:23:24;;;;;;;46.60;21.70;;;;;;;6.87;48.91;98961.70;107531;1260;70024;-66
2023/12/01 03:25:52;;;;;;;48.90;22.00;;;;;;;7.15;48.44;98954.13;107537;1260;72640;-66
2023/12/01 03:28:19;;;;;;;50.80;21.80;;;;;;;7.22;48.24;98941.08;107438;1261;60595;-66
2023/12/01 03:30:47;;;;;;;44.10;20.10;;;;;;;7.26;48.25;98926.25;107506;1260;59504;-66
2023/12/01 03:33:15;;;;;;;45.70;20.20;;;;;;;7.25;48.28;98932.04;107538;1260;71802;-66
2023/12/01 03:35:42;;;;;;;38.70;18.70;;;;;;;7.39;48.13;98914.54;107547;1260;69982;-66
2023/12/01 03:38:09;;;;;;;45.70;20.40;;;;;;;7.48;47.92;98913.80;107433;1261;71719;-66
2023/12/01 03:40:39;;;;;;;51.70;23.30;;;;;;;7.43;48.18;98904.05;107524;1260;61635;-65
2023/12/01 03:43:07;;;;;;;44.20;19.30;;;;;;;7.42;48.08;98903.39;107448;1260;59631;-66
2023/12/01 03:45:34;;;;;;;47.90;21.20;;;;;;;7.26;48.29;98899.17;107470;1259;73127;-67
2023/12/01 03:48:02;;;;;;;47.20;21.50;;;;;;;7.34;48.33;98901.46;107545;1261;69179;-65
2023/12/01 03:50:29;;;;;;;51.40;21.70;;;;;;;7.36;48.29;98910.45;107536;1260;72717;-65
2023/12/01 03:52:57;;;;;;;47.90;21.10;;;;;;;7.40;48.28;98877.13;107477;1261;60425;-65
2023/12/01 03:55:24;;;;;;;45.10;19.90;;;;;;;7.22;48.70;98857.27;107484;1261;60020;-65
2023/12/01 03:57:52;;;;;;;44.90;20.80;;;;;;;7.08;49.31;98851.09;107494;1260;72999;-66
2023/12/01 04:00:21;;;;;;;51.30;22.20;;;;;;;7.25;48.94;98839.55;107513;1260;70008;-65
2023/12/01 04:02:49;;;;;;;40.80;19.40;;;;;;;7.16;48.99;98864.02;108279;1252;72736;-65
2023/12/01 04:05:17;;;;;;;46.90;20.90;;;;;;;7.10;49.42;98864.28;108131;1254;60283;-65
2023/12/01 04:07:50;;;;;;;45.50;21.30;;;;;;;7.06;49.49;98856.58;108127;1251;59403;-66
2023/12/01 04:10:21;;;;;;;41.40;19.00;;;;;;;7.02;49.44;98862.16;108252;1251;71859;-65
2023/12/01 04:12:49;;;;;;;48.90;22.60;;;;;;;7.03;49.66;98869.81;108423;1250;69257;-65
2023/12/01 04:15:18;;;;;;;44.90;19.00;;;;;;;7.23;49.19;98870.69;108209;1253;71480;-65
2023/12/01 04:17:47;;;;;;;40.10;19.10;;;;;;;7.28;49.26;98872.20;108232;1251;61654;-65
2023/12/01 04:20:25;;;;;;;38.70;18.10;;;;;;;7.49;48.83;98846.30;108264;1251;59429;-66
2023/12/01 04:22:58;;;;;;;43.90;20.50;;;;;;;7.53;48.76;98826.39;108206;1251;73028;-66
2023/12/01 04:25:26;;;;;;;49.00;22.40;;;;;;;7.44;49.09;98832.06;108313;1256;68826;-65
2023/12/01 04:27:54;;;;;;;46.60;20.20;;;;;;;7.53;48.87;98831.48;108253;1251;70934;-66
2023/12/01 04:30:23;;;;;;;46.80;20.60;;;;;;;7.45;49.11;98841.63;108286;1256;60470;-65
2023/12/01 04:32:52;;;;;;;41.50;20.40;;;;;;;7.64;48.64;98846.34;108172;1251;59398;-65
2023/12/01 04:35:27;;;;;;;52.90;24.30;;;;;;;7.66;48.71;98813.40;108263;1251;71782;-66
2023/12/01 04:37:56;;;;;;;53.10;24.50;;;;;;;7.86;48.27;98795.39;108214;1251;70252;-65
2023/12/01 04:40:26;;;;;;;48.00;23.80;;;;;;;7.91;48.07;98804.04;108371;1251;72761;-65
2023/12/01 04:42:55;;;;;;;46.70;22.20;;;;;;;8.01;47.97;98825.38;108307;1257;62011;-65
2023/12/01 04:45:27;;;;;;;43.70;21.30;;;;;;;7.92;48.48;98830.55;108358;1250;59092;-66
2023/12/01 04:47:55;;;;;;;46.90;22.30;;;;;;;7.97;48.33;98820.00;108301;1250;71868;-65
2023/12/01 04:50:26;;;;;;;49.10;23.50;;;;;;;7.74;48.85;98827.70;108285;1251;70092;-66
2023/12/01 04:52:56;;;;;;;49.30;22.30;;;;;;;7.80;48.71;98816.06;108202;1251;71478;-66
2023/12/01 04:55:28;;;;;;;55.80;26.10;;;;;;;7.81;48.77;98797.34;108102;1251;60462;-66
2023/12/01 04:57:55;;;;;;;49.40;24.10;;;;;;;7.80;48.64;98791.61;108110;1251;59457;-66
2023/12/01 05:00:28;;;;;;;48.70;23.40;;;;;;;7.96;48.28;98790.01;108156;1251;73084;-66
2023/12/01 05:02:56;;;;;;;45.40;21.90;;;;;;;7.89;48.67;98792.95;108188;1251;70522;-66
2023/12/01 05:05:25;;;;;;;50.50;21.90;;;;;;;7.70;49.16;98808.88;108244;1251;72746;-66
2023/12/01 05:07:57;;;;;;;51.00;23.80;;;;;;;7.58;49.64;98819.88;108091;1251;59754;-65
2023/12/01 05:10:27;;;;;;;50.20;24.80;;;;;;;7.58;49.47;98819.03;108104;1251;59994;-65
2023/12/01 05:13:15;;;;;;;56.90;25.70;;;;;;;7.64;49.48;98832.01;108070;1251;71865;-66
2023/12/01 05:15:43;;;;;;;50.70;23.90;;;;;;;7.94;48.69;98819.13;108075;1257;69202;-66
2023/12/01 05:18:11;;;;;;;50.50;23.80;;;;;;;8.05;48.61;98805.63;108073;1254;71429;-66
2023/12/01 05:20:39;;;;;;;47.90;22.90;;;;;;;8.11;48.42;98798.89;108198;1251;59699;-66
2023/12/01 05:23:10;;;;;;;54.90;24.20;;;;;;;8.06;48.46;98815.89;108134;1251;60006;-67
2023/12/01 05:25:41;;;;;;;47.50;23.40;;;;;;;8.11;48.38;98824.08;108121;1251;71828;-66
2023/12/01 05:28:09;;;;;;;46.70;22.40;;;;;;;8.27;48.21;98810.00;108162;1251;70085;-67
2023/12/01 05:30:43;;;;;;;47.60;23.50;;;;;;;8.29;48.08;98802.20;108299;1251;70288;-67
2023/12/01 05:33:11;;;;;;;55.30;24.40;;;;;;;8.31;48.10;98809.46;108116;1251;60921;-66
2023/12/01 05:35:39;;;;;;;50.60;24.60;;;;;;;8.32;47.99;98815.39;108145;1251;60219;-66
2023/12/01 05:38:09;;;;;;;48.50;22.30;;;;;;;8.31;48.13;98797.42;108276;1251;73791;-66
2023/12/01 05:40:37;;;;;;;53.90;26.20;;;;;;;8.14;48.45;98777.60;108155;1251;70296;-66
2023/12/01 05:43:06;;;;;;;48.90;22.50;;;;;;;7.76;49.35;98777.29;108243;1251;71407;-66
2023/12/01 05:45:35;;;;;;;53.60;23.70;;;;;;;7.41;50.23;98804.08;108151;1251;60239;-66
2023/12/01 05:48:06;;;;;;;50.90;24.60;;;;;;;7.66;49.93;98828.98;108236;1251;60230;-66
2023/12/01 05:50:35;;;;;;;44.90;22.20;;;;;;;7.46;50.14;98827.42;108146;1251;74269;-66
2023/12/01 05:53:06;;;;;;;52.40;25.00;;;;;;;7.51;50.26;98828.05;108124;1251;70487;-66
2023/12/01 05:55:35;;;;;;;48.30;23.40;;;;;;;7.43;50.32;98822.13;108183;1251;71480;-66
2023/12/01 05:58:09;;;;;;;47.00;23.40;;;;;;;7.72;49.96;98814.18;108152;1253;60447;-66
2023/12/01 06:00:37;;;;;;;54.10;25.30;;;;;;;7.81;49.76;98789.48;108214;1250;60440;-66
2023/12/01 06:03:07;;;;;;;56.80;26.60;;;;;;;7.59;50.37;98768.48;108230;1250;74681;-66
2023/12/01 06:05:35;;;;;;;60.00;27.60;;;;;;;7.63;50.34;98776.33;108203;1250;70676;-66
2023/12/01 06:08:03;;;;;;;53.70;24.50;;;;;;;7.50;50.66;98791.27;108240;1250;72621;-66
2023/12/01 06:10:31;;;;;;;49.30;23.00;;;;;;;7.83;50.14;98789.55;108356;1253;60948;-66
2023/12/01 06:13:00;;;;;;;65.50;26.70;;;;;;;7.88;50.14;98777.63;108297;1251;60179;-66
2023/12/01 06:15:31;;;;;;;69.30;26.60;;;;;;;8.10;49.54;98769.58;108348;1250;74132;-66
2023/12/01 06:18:00;;;;;;;47.90;22.70;;;;;;;8.11;49.40;98782.48;108269;1250;69198;-66
2023/12/01 06:20:30;;;;;;;67.90;28.80;;;;;;;8.15;49.43;98793.46;108243;1251;71442;-66
2023/12/01 06:22:59;;;;;;;70.70;30.40;;;;;;;8.20;49.44;98771.52;108221;1253;60430;-66
2023/12/01 06:25:30;;;;;;;60.50;28.00;;;;;;;8.40;49.07;98754.67;108223;1256;60418;-66
2023/12/01 06:28:02;;;;;;;73.00;31.80;;;;;;;8.58;48.59;98756.40;108238;1251;72677;-66
2023/12/01 06:30:34;;;;;;;58.90;26.20;;;;;;;8.73;48.28;98767.68;108218;1251;68713;-66
2023/12/01 06:33:06;;;;;;;60.50;28.20;;;;;;;8.68;48.55;98790.52;108260;1251;71120;-66
2023/12/01 06:35:33;;;;;;;61.70;29.50;;;;;;;8.80;48.54;98778.35;108227;1251;60392;-66
2023/12/01 06:38:01;;;;;;;56.10;24.30;;;;;;;8.82;48.40;98758.81;108141;1251;60106;-66
2023/12/01 06:40:33;;;;;;;58.10;26.60;;;;;;;8.83;48.37;98750.36;108135;1256;74457;-66
2023/12/01 06:43:10;;;;;;;64.10;27.60;;;;;;;8.87;48.20;98751.41;108195;1251;70910;-66
2023/12/01 06:45:41;;;;;;;45.50;23.30;;;;;;;8.42;49.12;98755.23;108171;1251;71462;-66
2023/12/01 06:48:10;;;;;;;55.00;26.80;;;;;;;8.23;49.71;98762.30;108201;1252;60364;-66
2023/12/01 06:50:38;;;;;;;51.30;24.20;;;;;;;8.32;49.53;98751.21;108212;1253;60114;-66
2023/12/01 06:53:06;;;;;;;63.00;30.20;;;;;;;8.49;49.29;98750.20;108159;1254;73894;-66
2023/12/01 06:55:35;;;;;;;70.30;32.10;;;;;;;8.37;49.38;98775.05;108217;1253;70011;-66
2023/12/01 06:58:03;;;;;;;72.90;31.10;;;;;;;8.32;49.50;98760.61;108254;1256;72661;-66
2023/12/01 07:00:33;;;;;;;78.80;35.70;;;;;;;8.26;49.68;98748.52;108043;1253;60750;-66
2023/12/01 07:03:07;;;;;;;90.20;37.70;;;;;;;8.58;48.94;98742.37;108220;1256;60164;-66
2023/12/01 07:05:37;;;;;;;105.50;43.30;;;;;;;8.69;48.68;98755.65;108379;1251;72931;-66
2023/12/01 07:08:05;;;;;;;121.40;50.40;;;;;;;8.58;48.76;98750.77;108245;1251;69187;-66
2023/12/01 07:10:33;;;;;;;95.90;38.70;;;;;;;8.14;49.78;98737.04;108251;1251;71285;-66
2023/12/01 07:13:01;;;;;;;82.20;37.40;;;;;;;7.94;50.40;98748.30;108341;1251;60432;-66
2023/12/01 07:15:29;;;;;;;78.70;34.50;;;;;;;8.17;49.88;98757.69;108286;1251;60322;-66
2023/12/01 07:17:57;;;;;;;69.60;31.50;;;;;;;8.10;50.01;98754.51;108272;1251;72609;-67
2023/12/01 07:20:25;;;;;;;74.10;33.10;;;;;;;8.08;50.34;98741.69;108182;1251;68683;-67
2023/12/01 07:22:53;;;;;;;71.10;33.60;;;;;;;8.30;49.87;98751.10;108167;1251;71417;-66
2023/12/01 07:25:21;;;;;;;71.30;33.80;;;;;;;8.52;49.47;98760.52;108152;1251;60412;-66
2023/12/01 07:28:05;;;;;;;74.20;37.40;;;;;;;8.56;49.55;98767.32;108187;1251;60261;-66
2023/12/01 07:30:33;;;;;;;69.50;32.70;;;;;;;8.49;49.56;98764.36;108243;1251;73942;-66
2023/12/01 07:33:03;;;;;;;90.70;39.80;;;;;;;8.48;49.65;98757.26;108123;1251;70392;-67
2023/12/01 07:35:31;;;;;;;83.90;40.40;;;;;;;8.22;50.06;98752.00;108236;1251;71818;-66
2023/12/01 07:37:59;;;;;;;83.20;36.80;;;;;;;8.30;49.93;98737.27;108121;1251;61068;-66
2023/12/01 07:40:27;;;;;;;98.30;44.50;;;;;;;8.28;50.07;98742.65;108329;1251;60288;-66
2023/12/01 07:42:56;;;;;;;96.40;44.20;;;;;;;8.43;50.02;98731.73;108195;1251;72622;-67
2023/12/01 07:45:25;;;;;;;96.40;44.00;;;;;;;8.72;49.33;98723.16;108326;1251;69239;-66
2023/12/01 07:47:54;;;;;;;104.30;47.80;;;;;;;8.83;49.07;98703.65;108205;1251;71517;-66
2023/12/01 07:50:25;;;;;;;104.40;45.90;;;;;;;8.63;49.41;98702.41;108214;1251;60923;-67
2023/12/01 07:52:55;;;;;;;103.30;45.40;;;;;;;8.76;49.17;98716.23;108264;1253;59162;-66
2023/12/01 07:55:22;;;;;;;105.00;48.70;;;;;;;8.76;49.03;98722.19;108232;1256;72619;-66
2023/12/01 07:57:51;;;;;;;99.40;43.70;;;;;;;8.78;49.20;98720.20;108292;1251;72579;-67
2023/12/01 08:00:19;;;;;;;104.40;47.00;;;;;;;8.75;49.33;98730.84;108226;1251;71724;-66
2023/12/01 08:02:47;;;;;;;77.30;34.70;;;;;;;8.73;49.33;98714.67;108225;1252;59585;-66
2023/12/01 08:05:15;;;;;;;99.60;42.90;;;;;;;8.75;49.53;98705.66;108182;1251;62136;-66
2023/12/01 08:07:46;;;;;;;95.10;45.00;;;;;;;8.73;49.37;98724.27;108028;1251;72631;-66
2023/12/01 08:10:16;;;;;;;77.30;36.90;;;;;;;8.87;49.12;98743.89;108128;1251;70609;-66
2023/12/01 08:12:45;;;;;;;102.00;47.80;;;;;;;9.03;48.79;98737.06;108166;1251;73002;-66
2023/12/01 08:15:13;;;;;;;103.00;47.70;;;;;;;9.37;47.97;98746.80;108212;1251;60319;-67
2023/12/01 08:17:42;;;;;;;75.80;34.80;;;;;;;9.42;48.05;98749.89;108263;1251;60475;-66
2023/12/01 08:20:11;;;;;;;95.40;44.90;;;;;;;9.15;48.70;98763.05;108270;1250;73853;-66
2023/12/01 08:22:39;;;;;;;80.80;39.20;;;;;;;8.92;49.11;98760.96;108282;1250;69977;-66
2023/12/01 08:25:08;;;;;;;73.10;34.00;;;;;;;8.82;49.50;98751.45;108164;1250;72755;-66
2023/12/01 08:27:37;;;;;;;83.10;37.10;;;;;;;8.87;49.65;98745.26;108333;1253;60431;-66
2023/12/01 08:30:06;;;;;;;78.40;35.70;;;;;;;8.97;49.60;98751.06;108322;1253;60936;-66
2023/12/01 08:32:33;;;;;;;79.50;36.70;;;;;;;9.12;49.11;98760.59;108361;1250;73907;-66
2023/12/01 08:35:01;;;;;;;72.50;33.30;;;;;;;9.47;48.40;98749.98;108306;1250;69219;-67
2023/12/01 08:37:30;;;;;;;71.80;33.60;;;;;;;9.59;48.07;98740.58;108276;1250;72668;-66
2023/12/01 08:39:57;;;;;;;68.80;31.90;;;;;;;9.77;47.74;98721.15;108267;1250;60906;-66
2023/12/01 08:42:25;;;;;;;61.00;30.30;;;;;;;10.11;46.96;98723.41;108267;1250;61118;-66
2023/12/01 08:44:53;;;;;;;65.20;33.00;;;;;;;10.19;46.74;98728.39;108232;1250;73853;-66
2023/12/01 08:47:21;;;;;;;64.50;31.90;;;;;;;10.20;46.66;98722.23;108237;1250;69321;-66
2023/12/01 08:49:49;;;;;;;63.50;29.90;;;;;;;9.88;47.48;98720.51;108236;1250;72627;-66
2023/12/01 08:52:17;;;;;;;62.40;30.10;;;;;;;10.06;47.20;98725.98;108192;1253;60847;-66
2023/12/01 08:54:44;;;;;;;58.80;28.20;;;;;;;10.13;47.13;98724.04;108234;1250;60174;-67
2023/12/01 08:57:12;;;;;;;70.20;32.00;;;;;;;10.18;46.83;98723.88;108202;1250;72566;-66
2023/12/01 08:59:39;;;;;;;58.90;28.80;;;;;;;10.21;46.87;98712.16;108167;1250;68685;-65
2023/12/01 09:02:07;;;;;;;57.50;27.80;;;;;;;10.21;46.84;98703.89;107985;1254;72647;-65
2023/12/01 09:04:39;;;;;;;57.10;28.10;;;;;;;10.08;46.99;98712.90;108080;1251;63090;-66
2023/12/01 09:07:07;;;;;;;55.90;27.10;;;;;;;10.05;46.73;98734.98;108090;1255;60344;-65
2023/12/01 09:09:35;;;;;;;47.00;24.50;;;;;;;10.04;46.73;98725.57;108113;1251;72985;-66
2023/12/01 09:12:03;;;;;;;55.30;26.20;;;;;;;10.12;46.49;98724.05;108131;1251;70709;-65
2023/12/01 09:14:31;;;;;;;49.70;25.80;;;;;;;10.25;46.26;98721.20;108170;1253;73651;-65
2023/12/01 09:16:58;;;;;;;53.00;24.70;;;;;;;10.41;45.89;98712.27;108106;1251;60320;-66
2023/12/01 09:19:26;;;;;;;48.20;24.80;;;;;;;10.32;45.93;98708.34;108050;1251;60126;-66
2023/12/01 09:21:53;;;;;;;47.30;23.30;;;;;;;10.34;45.93;98729.70;108093;1251;74173;-66
2023/12/01 09:24:21;;;;;;;54.90;27.10;;;;;;;10.28;45.87;98752.66;108048;1257;69551;-66
2023/12/01 09:26:49;;;;;;;48.60;24.90;;;;;;;10.32;45.84;98750.31;108036;1251;73845;-65
2023/12/01 09:29:18;;;;;;;46.90;24.30;;;;;;;10.30;46.05;98746.39;108074;1253;60464;-66
2023/12/01 09:31:46;;;;;;;47.30;23.50;;;;;;;10.29;46.09;98749.77;108082;1251;58877;-65
2023/12/01 09:34:14;;;;;;;41.20;22.40;;;;;;;10.22;46.19;98753.98;108134;1251;72662;-65
2023/12/01 09:36:41;;;;;;;50.50;26.00;;;;;;;10.28;45.87;98746.82;108144;1251;70048;-65
2023/12/01 09:39:09;;;;;;;52.70;24.90;;;;;;;10.16;45.95;98751.16;108145;1251;72829;-66
2023/12/01 09:41:37;;;;;;;49.20;25.20;;;;;;;10.30;45.90;98749.02;108087;1251;60294;-66
2023/12/01 09:44:05;;;;;;;53.10;26.60;;;;;;;10.56;45.36;98744.36;108098;1251;61017;-66
2023/12/01 09:46:40;;;;;;;43.10;23.30;;;;;;;10.51;45.26;98731.46;108080;1255;76131;-65
2023/12/01 09:49:08;;;;;;;44.70;24.60;;;;;;;10.50;45.42;98730.33;108110;1251;71039;-65
2023/12/01 09:51:36;;;;;;;53.10;26.60;;;;;;;10.32;45.76;98731.50;108105;1251;71590;-66
2023/12/01 09:54:04;;;;;;;48.20;25.30;;;;;;;10.54;45.58;98722.19;108111;1251;60338;-66
2023/12/01 09:56:32;;;;;;;57.80;27.20;;;;;;;10.71;45.07;98730.48;108144;1251;60413;-65
2023/12/01 09:59:00;;;;;;;57.00;27.70;;;;;;;10.60;45.14;98735.66;108185;1251;74635;-65
2023/12/01 10:01:27;;;;;;;47.60;25.30;;;;;;;10.44;45.25;98742.10;108199;1256;70630;-65
2023/12/01 10:03:55;;;;;;;52.10;27.10;;;;;;;10.42;45.31;98743.59;108238;1251;72675;-65
2023/12/01 10:06:24;;;;;;;50.30;26.50;;;;;;;10.38;45.22;98760.49;108203;1250;60419;-66
2023/12/01 10:08:52;;;;;;;48.90;25.90;;;;;;;10.13;45.88;98776.61;108272;1250;60120;-66
2023/12/01 10:11:21;;;;;;;50.40;26.90;;;;;;;10.13;45.88;98789.23;108195;1250;74020;-66
2023/12/01 10:13:49;;;;;;;46.70;24.40;;;;;;;9.78;46.30;98781.77;108253;1250;69481;-66
2023/12/01 10:16:18;;;;;;;53.90;26.70;;;;;;;9.72;46.43;98764.69;108209;1256;71726;-66
2023/12/01 10:19:01;;;;;;;49.00;24.60;;;;;;;9.74;46.36;98760.76;108169;1252;61810;-66
2023/12/01 10:21:49;;;;;;;47.80;24.70;;;;;;;9.76;46.38;98764.67;108202;1252;60782;-65
2023/12/01 10:24:20;;;;;;;55.50;27.20;;;;;;;9.87;46.12;98765.98;108238;1250;75829;-66
2023/12/01 10:26:50;;;;;;;52.80;26.90;;;;;;;9.93;45.89;98777.77;108253;1256;72398;-66
2023/12/01 10:29:31;;;;;;;57.60;27.60;;;;;;;10.07;45.68;98770.67;108220;1250;74956;-66
2023/12/01 10:32:00;;;;;;;63.40;30.10;;;;;;;10.28;45.29;98776.98;108099;1250;60822;-66
2023/12/01 10:34:28;;;;;;;50.50;25.90;;;;;;;10.44;45.00;98763.11;108282;1250;60308;-65
2023/12/01 10:36:55;;;;;;;57.30;28.30;;;;;;;10.19;45.30;98755.93;108168;1256;75159;-66
2023/12/01 10:39:25;;;;;;;51.70;26.10;;;;;;;9.97;45.60;98754.93;108213;1250;70225;-66
2023/12/01 10:41:53;;;;;;;53.30;26.50;;;;;;;9.72;46.22;98766.64;108206;1250;72485;-65
2023/12/01 10:44:26;;;;;;;51.00;26.70;;;;;;;9.81;46.18;98778.25;108136;1250;63095;-65
2023/12/01 10:46:55;;;;;;;53.20;27.80;;;;;;;9.86;46.06;98786.75;108213;1250;60029;-65
2023/12/01 10:49:22;;;;;;;60.70;29.30;;;;;;;9.94;46.01;98782.29;108254;1250;75961;-65
2023/12/01 10:51:56;;;;;;;53.30;26.90;;;;;;;9.99;45.97;98790.95;108197;1250;71294;-66
2023/12/01 10:54:25;;;;;;;53.00;25.60;;;;;;;10.11;45.88;98776.21;108239;1250;70879;-66
2023/12/01 10:57:19;;;;;;;52.00;27.20;;;;;;;10.16;45.71;98774.55;108133;1250;60963;-65
2023/12/01 10:59:51;;;;;;;53.00;27.60;;;;;;;10.17;45.75;98773.73;108207;1250;62309;-66
2023/12/01 11:02:20;;;;;;;46.20;24.50;;;;;;;10.38;45.45;98771.73;108198;1250;73939;-66
2023/12/01 11:04:49;;;;;;;38.50;19.20;;;;;;;10.44;45.27;98779.64;108245;1256;69163;-66
2023/12/01 11:07:33;;;;;;;52.50;26.70;;;;;;;10.49;45.24;98786.38;108219;1250;72793;-65
2023/12/01 11:10:25;;;;;;;38.60;21.20;;;;;;;10.27;45.57;98789.33;108237;1250;60523;-66
2023/12/01 11:13:12;;;;;;;50.00;24.90;;;;;;;10.20;45.78;98778.52;108273;1250;60330;-66
2023/12/01 11:15:40;;;;;;;44.30;23.20;;;;;;;10.32;45.50;98779.45;108300;1250;76097;-66
2023/12/01 11:18:11;;;;;;;42.00;22.30;;;;;;;10.18;45.37;98781.60;108237;1250;69359;-66
2023/12/01 11:20:46;;;;;;;44.90;23.40;;;;;;;10.16;45.27;98804.00;108235;1250;72421;-65
2023/12/01 11:23:20;;;;;;;50.10;24.20;;;;;;;10.07;45.37;98820.77;108207;1256;60365;-65
2023/12/01 11:25:57;;;;;;;44.40;22.30;;;;;;;9.99;45.48;98819.87;108217;1250;60422;-65